sensor_id;sensor_type;location;lat;lon;timestamp;P1;durP1;ratioP1;P2;durP2;ratioP2
20002;SDS011;10162;41.600;23.806;2022-07-17T00:01:11;8.57;;;7.73;;
20002;SDS011;10162;41.600;23.806;2022-07-17T00:06:29;8.83;;;7.93;;
20002;SDS011;10162;41.600;23.806;2022-07-17T00:08:55;8.77;;;8.07;;
20002;SDS011;10162;41.600;23.806;2022-07-17T00:11:20;8.57;;;7.77;;
20002;SDS011;10162;41.600;23.806;2022-07-17T00:17:33;7.93;;;7.33;;
20002;SDS011;10162;41.600;23.806;2022-07-17T00:19:59;8.37;;;7.67;;
20002;SDS011;10162;41.600;23.806;2022-07-17T00:25:21;7.90;;;7.13;;
20002;SDS011;10162;41.600;23.806;2022-07-17T00:27:47;8.87;;;8.07;;
20002;SDS011;10162;41.600;23.806;2022-07-17T00:30:13;8.37;;;7.67;;
20002;SDS011;10162;41.600;23.806;2022-07-17T00:35:44;8.50;;;7.73;;
20002;SDS011;10162;41.600;23.806;2022-07-17T00:38:10;8.00;;;7.40;;
20002;SDS011;10162;41.600;23.806;2022-07-17T00:40:35;9.07;;;7.97;;
20002;SDS011;10162;41.600;23.806;2022-07-17T00:46:48;9.67;;;8.77;;
20002;SDS011;10162;41.600;23.806;2022-07-17T00:49:13;8.53;;;7.83;;
20002;SDS011;10162;41.600;23.806;2022-07-17T00:51:39;8.37;;;7.67;;
20002;SDS011;10162;41.600;23.806;2022-07-17T00:57:52;8.20;;;7.50;;
20002;SDS011;10162;41.600;23.806;2022-07-17T01:00:20;9.03;;;8.13;;
20002;SDS011;10162;41.600;23.806;2022-07-17T01:06:34;11.03;;;8.53;;
20002;SDS011;10162;41.600;23.806;2022-07-17T01:08:59;9.37;;;8.37;;
20002;SDS011;10162;41.600;23.806;2022-07-17T01:11:25;9.20;;;8.37;;
20002;SDS011;10162;41.600;23.806;2022-07-17T01:17:09;8.70;;;7.90;;
20002;SDS011;10162;41.600;23.806;2022-07-17T01:19:35;8.80;;;8.00;;
20002;SDS011;10162;41.600;23.806;2022-07-17T01:22:01;11.97;;;8.50;;
20002;SDS011;10162;41.600;23.806;2022-07-17T01:28:14;9.10;;;8.30;;
20002;SDS011;10162;41.600;23.806;2022-07-17T01:30:46;8.97;;;8.17;;
20002;SDS011;10162;41.600;23.806;2022-07-17T01:37:01;9.53;;;8.73;;
20002;SDS011;10162;41.600;23.806;2022-07-17T01:39:26;8.93;;;8.03;;
20002;SDS011;10162;41.600;23.806;2022-07-17T01:42:11;9.00;;;8.20;;
20002;SDS011;10162;41.600;23.806;2022-07-17T01:48:25;9.33;;;8.47;;
20002;SDS011;10162;41.600;23.806;2022-07-17T01:50:52;10.80;;;8.80;;
20002;SDS011;10162;41.600;23.806;2022-07-17T01:57:05;9.23;;;8.43;;
20002;SDS011;10162;41.600;23.806;2022-07-17T01:59:31;8.77;;;8.07;;
20002;SDS011;10162;41.600;23.806;2022-07-17T02:01:56;9.03;;;8.13;;
20002;SDS011;10162;41.600;23.806;2022-07-17T02:07:13;9.53;;;8.60;;
20002;SDS011;10162;41.600;23.806;2022-07-17T02:09:39;9.33;;;8.53;;
20002;SDS011;10162;41.600;23.806;2022-07-17T02:12:05;9.33;;;8.60;;
20002;SDS011;10162;41.600;23.806;2022-07-17T02:17:39;10.10;;;9.03;;
20002;SDS011;10162;41.600;23.806;2022-07-17T02:20:08;8.87;;;8.10;;
20002;SDS011;10162;41.600;23.806;2022-07-17T02:26:22;9.90;;;9.00;;
20002;SDS011;10162;41.600;23.806;2022-07-17T02:28:48;9.40;;;8.50;;
20002;SDS011;10162;41.600;23.806;2022-07-17T02:31:13;9.33;;;8.63;;
20002;SDS011;10162;41.600;23.806;2022-07-17T02:37:26;9.67;;;8.77;;
20002;SDS011;10162;41.600;23.806;2022-07-17T02:39:51;10.17;;;9.33;;
20002;SDS011;10162;41.600;23.806;2022-07-17T02:42:18;9.60;;;8.80;;
20002;SDS011;10162;41.600;23.806;2022-07-17T02:44:48;9.77;;;8.87;;
20002;SDS011;10162;41.600;23.806;2022-07-17T02:47:47;10.33;;;9.33;;
20002;SDS011;10162;41.600;23.806;2022-07-17T02:50:08;9.93;;;8.83;;
20002;SDS011;10162;41.600;23.806;2022-07-17T02:55:28;9.97;;;9.10;;
20002;SDS011;10162;41.600;23.806;2022-07-17T02:57:53;10.50;;;8.53;;
20002;SDS011;10162;41.600;23.806;2022-07-17T03:00:19;9.60;;;8.77;;
20002;SDS011;10162;41.600;23.806;2022-07-17T03:02:48;10.37;;;9.37;;
20002;SDS011;10162;41.600;23.806;2022-07-17T03:05:15;9.50;;;8.67;;
20002;SDS011;10162;41.600;23.806;2022-07-17T03:07:41;9.50;;;8.60;;
20002;SDS011;10162;41.600;23.806;2022-07-17T03:10:09;9.83;;;8.93;;
20002;SDS011;10162;41.600;23.806;2022-07-17T03:12:42;10.17;;;9.17;;
20002;SDS011;10162;41.600;23.806;2022-07-17T03:15:09;9.60;;;8.80;;
20002;SDS011;10162;41.600;23.806;2022-07-17T03:17:35;9.73;;;8.83;;
20002;SDS011;10162;41.600;23.806;2022-07-17T03:20:03;10.03;;;9.23;;
20002;SDS011;10162;41.600;23.806;2022-07-17T03:25:36;9.97;;;9.07;;
20002;SDS011;10162;41.600;23.806;2022-07-17T03:28:02;9.93;;;9.03;;
20002;SDS011;10162;41.600;23.806;2022-07-17T03:30:28;9.43;;;8.63;;
20002;SDS011;10162;41.600;23.806;2022-07-17T03:36:41;9.60;;;8.53;;
20002;SDS011;10162;41.600;23.806;2022-07-17T03:39:07;9.97;;;9.10;;
20002;SDS011;10162;41.600;23.806;2022-07-17T03:41:33;10.47;;;9.57;;
20002;SDS011;10162;41.600;23.806;2022-07-17T03:47:47;21.13;;;18.93;;
20002;SDS011;10162;41.600;23.806;2022-07-17T03:50:12;25.67;;;21.40;;
20002;SDS011;10162;41.600;23.806;2022-07-17T03:56:26;17.77;;;16.07;;
20002;SDS011;10162;41.600;23.806;2022-07-17T03:58:51;13.50;;;11.60;;
20002;SDS011;10162;41.600;23.806;2022-07-17T04:01:17;13.20;;;11.70;;
20002;SDS011;10162;41.600;23.806;2022-07-17T04:07:30;12.27;;;11.00;;
20002;SDS011;10162;41.600;23.806;2022-07-17T04:09:56;12.13;;;10.93;;
20002;SDS011;10162;41.600;23.806;2022-07-17T04:12:24;14.60;;;13.20;;
20002;SDS011;10162;41.600;23.806;2022-07-17T04:14:50;12.93;;;11.63;;
20002;SDS011;10162;41.600;23.806;2022-07-17T04:17:16;11.57;;;10.57;;
20002;SDS011;10162;41.600;23.806;2022-07-17T04:19:42;11.33;;;10.40;;
20002;SDS011;10162;41.600;23.806;2022-07-17T04:22:07;11.67;;;10.50;;
20002;SDS011;10162;41.600;23.806;2022-07-17T04:28:21;9.27;;;8.57;;
20002;SDS011;10162;41.600;23.806;2022-07-17T04:30:47;12.60;;;8.60;;
20002;SDS011;10162;41.600;23.806;2022-07-17T04:37:00;10.10;;;9.30;;
20002;SDS011;10162;41.600;23.806;2022-07-17T04:39:26;9.23;;;8.40;;
20002;SDS011;10162;41.600;23.806;2022-07-17T04:41:52;9.27;;;8.07;;
20002;SDS011;10162;41.600;23.806;2022-07-17T04:47:18;9.07;;;8.37;;
20002;SDS011;10162;41.600;23.806;2022-07-17T04:49:44;8.80;;;8.10;;
20002;SDS011;10162;41.600;23.806;2022-07-17T04:52:10;8.40;;;7.70;;
20002;SDS011;10162;41.600;23.806;2022-07-17T04:54:36;8.67;;;7.97;;
20002;SDS011;10162;41.600;23.806;2022-07-17T04:57:02;8.43;;;7.63;;
20002;SDS011;10162;41.600;23.806;2022-07-17T04:59:27;8.03;;;7.33;;
20002;SDS011;10162;41.600;23.806;2022-07-17T05:01:53;8.47;;;7.60;;
20002;SDS011;10162;41.600;23.806;2022-07-17T05:07:08;7.80;;;7.20;;
20002;SDS011;10162;41.600;23.806;2022-07-17T05:09:34;8.43;;;7.60;;
20002;SDS011;10162;41.600;23.806;2022-07-17T05:12:00;8.17;;;7.57;;
20002;SDS011;10162;41.600;23.806;2022-07-17T05:17:37;8.17;;;7.37;;
20002;SDS011;10162;41.600;23.806;2022-07-17T05:20:04;7.33;;;6.73;;
20002;SDS011;10162;41.600;23.806;2022-07-17T05:25:26;7.50;;;6.90;;
20002;SDS011;10162;41.600;23.806;2022-07-17T05:27:52;7.70;;;7.07;;
20002;SDS011;10162;41.600;23.806;2022-07-17T05:30:17;8.37;;;7.60;;
20002;SDS011;10162;41.600;23.806;2022-07-17T05:35:22;8.20;;;7.47;;
20002;SDS011;10162;41.600;23.806;2022-07-17T05:37:48;7.87;;;7.27;;
20002;SDS011;10162;41.600;23.806;2022-07-17T05:40:14;7.10;;;6.60;;
20002;SDS011;10162;41.600;23.806;2022-07-17T05:42:57;7.73;;;7.13;;
20002;SDS011;10162;41.600;23.806;2022-07-17T05:45:23;7.87;;;7.27;;
20002;SDS011;10162;41.600;23.806;2022-07-17T05:47:49;8.10;;;7.40;;
20002;SDS011;10162;41.600;23.806;2022-07-17T05:50:15;9.27;;;8.40;;
20002;SDS011;10162;41.600;23.806;2022-07-17T05:55:49;15.88;;;14.57;;
20002;SDS011;10162;41.600;23.806;2022-07-17T05:58:15;11.75;;;10.75;;
20002;SDS011;10162;41.600;23.806;2022-07-17T06:00:41;9.70;;;8.83;;
20002;SDS011;10162;41.600;23.806;2022-07-17T06:03:20;8.82;;;8.15;;
20002;SDS011;10162;41.600;23.806;2022-07-17T06:05:45;9.13;;;8.32;;
20002;SDS011;10162;41.600;23.806;2022-07-17T06:08:11;10.32;;;9.15;;
20002;SDS011;10162;41.600;23.806;2022-07-17T06:10:37;10.65;;;9.18;;
20002;SDS011;10162;41.600;23.806;2022-07-17T06:16:53;8.57;;;7.78;;
20002;SDS011;10162;41.600;23.806;2022-07-17T06:19:18;9.95;;;9.05;;
20002;SDS011;10162;41.600;23.806;2022-07-17T06:21:44;10.27;;;9.27;;
20002;SDS011;10162;41.600;23.806;2022-07-17T06:24:16;9.98;;;9.05;;
20002;SDS011;10162;41.600;23.806;2022-07-17T06:26:42;9.82;;;9.02;;
20002;SDS011;10162;41.600;23.806;2022-07-17T06:29:07;11.10;;;10.00;;
20002;SDS011;10162;41.600;23.806;2022-07-17T06:31:33;12.18;;;10.73;;
20002;SDS011;10162;41.600;23.806;2022-07-17T06:34:00;11.65;;;9.88;;
20002;SDS011;10162;41.600;23.806;2022-07-17T06:36:26;9.73;;;8.82;;
20002;SDS011;10162;41.600;23.806;2022-07-17T06:38:51;10.35;;;9.38;;
20002;SDS011;10162;41.600;23.806;2022-07-17T06:41:17;10.43;;;9.52;;
20002;SDS011;10162;41.600;23.806;2022-07-17T06:46:13;10.65;;;9.75;;
20002;SDS011;10162;41.600;23.806;2022-07-17T06:48:39;12.55;;;11.32;;
20002;SDS011;10162;41.600;23.806;2022-07-17T06:51:04;11.10;;;9.88;;
20002;SDS011;10162;41.600;23.806;2022-07-17T06:56:40;9.18;;;8.35;;
20002;SDS011;10162;41.600;23.806;2022-07-17T06:59:06;10.32;;;8.68;;
20002;SDS011;10162;41.600;23.806;2022-07-17T07:01:33;9.23;;;8.40;;
20002;SDS011;10162;41.600;23.806;2022-07-17T07:07:50;9.30;;;8.50;;
20002;SDS011;10162;41.600;23.806;2022-07-17T07:10:15;8.90;;;8.10;;
20002;SDS011;10162;41.600;23.806;2022-07-17T07:12:43;8.95;;;8.10;;
20002;SDS011;10162;41.600;23.806;2022-07-17T07:15:09;9.10;;;8.20;;
20002;SDS011;10162;41.600;23.806;2022-07-17T07:17:35;10.48;;;9.13;;
20002;SDS011;10162;41.600;23.806;2022-07-17T07:20:01;8.23;;;7.53;;
20002;SDS011;10162;41.600;23.806;2022-07-17T07:25:22;11.25;;;8.30;;
20002;SDS011;10162;41.600;23.806;2022-07-17T07:27:48;8.85;;;8.25;;
20002;SDS011;10162;41.600;23.806;2022-07-17T07:30:14;12.55;;;10.35;;
20002;SDS011;10162;41.600;23.806;2022-07-17T07:36:27;8.30;;;7.70;;
20002;SDS011;10162;41.600;23.806;2022-07-17T07:38:52;7.82;;;7.22;;
20002;SDS011;10162;41.600;23.806;2022-07-17T07:41:18;7.70;;;7.00;;
20002;SDS011;10162;41.600;23.806;2022-07-17T07:47:05;8.13;;;7.43;;
20002;SDS011;10162;41.600;23.806;2022-07-17T07:49:31;8.55;;;7.75;;
20002;SDS011;10162;41.600;23.806;2022-07-17T07:51:57;7.90;;;7.30;;
20002;SDS011;10162;41.600;23.806;2022-07-17T07:57:15;10.00;;;7.72;;
20002;SDS011;10162;41.600;23.806;2022-07-17T07:59:41;8.35;;;7.55;;
20002;SDS011;10162;41.600;23.806;2022-07-17T08:02:06;8.70;;;7.75;;
20002;SDS011;10162;41.600;23.806;2022-07-17T08:04:43;8.60;;;7.80;;
20002;SDS011;10162;41.600;23.806;2022-07-17T08:07:09;8.63;;;7.88;;
20002;SDS011;10162;41.600;23.806;2022-07-17T08:09:35;8.52;;;7.80;;
20002;SDS011;10162;41.600;23.806;2022-07-17T08:12:01;11.70;;;7.72;;
20002;SDS011;10162;41.600;23.806;2022-07-17T08:17:26;8.68;;;7.57;;
20002;SDS011;10162;41.600;23.806;2022-07-17T08:19:52;11.32;;;7.88;;
20002;SDS011;10162;41.600;23.806;2022-07-17T08:22:17;7.50;;;6.90;;
20002;SDS011;10162;41.600;23.806;2022-07-17T08:24:43;8.15;;;7.40;;
20002;SDS011;10162;41.600;23.806;2022-07-17T08:27:09;8.20;;;7.45;;
20002;SDS011;10162;41.600;23.806;2022-07-17T08:29:35;7.88;;;7.32;;
20002;SDS011;10162;41.600;23.806;2022-07-17T08:32:01;7.80;;;7.15;;
20002;SDS011;10162;41.600;23.806;2022-07-17T08:36:56;8.18;;;6.97;;
20002;SDS011;10162;41.600;23.806;2022-07-17T08:39:22;7.30;;;6.65;;
20002;SDS011;10162;41.600;23.806;2022-07-17T08:41:49;7.55;;;6.88;;
20002;SDS011;10162;41.600;23.806;2022-07-17T08:44:15;7.50;;;6.88;;
20002;SDS011;10162;41.600;23.806;2022-07-17T08:46:41;7.60;;;6.75;;
20002;SDS011;10162;41.600;23.806;2022-07-17T08:49:07;7.28;;;6.75;;
20002;SDS011;10162;41.600;23.806;2022-07-17T08:51:34;8.88;;;6.60;;
20002;SDS011;10162;41.600;23.806;2022-07-17T08:54:02;7.20;;;6.70;;
20002;SDS011;10162;41.600;23.806;2022-07-17T08:56:28;6.60;;;6.10;;
20002;SDS011;10162;41.600;23.806;2022-07-17T08:58:54;6.50;;;5.90;;
20002;SDS011;10162;41.600;23.806;2022-07-17T09:01:21;6.45;;;5.95;;
20002;SDS011;10162;41.600;23.806;2022-07-17T09:03:58;7.00;;;6.32;;
20002;SDS011;10162;41.600;23.806;2022-07-17T09:06:32;6.80;;;6.20;;
20002;SDS011;10162;41.600;23.806;2022-07-17T09:09:08;12.45;;;6.20;;
20002;SDS011;10162;41.600;23.806;2022-07-17T09:11:43;9.75;;;5.97;;
20002;SDS011;10162;41.600;23.806;2022-07-17T09:14:17;5.80;;;5.40;;
20002;SDS011;10162;41.600;23.806;2022-07-17T09:16:48;6.82;;;6.00;;
20002;SDS011;10162;41.600;23.806;2022-07-17T09:19:29;6.00;;;5.50;;
20002;SDS011;10162;41.600;23.806;2022-07-17T09:27:27;6.45;;;5.93;;
20002;SDS011;10162;41.600;23.806;2022-07-17T09:29:59;5.82;;;5.43;;
20002;SDS011;10162;41.600;23.806;2022-07-17T09:32:38;5.57;;;5.07;;
20002;SDS011;10162;41.600;23.806;2022-07-17T09:35:07;5.50;;;5.10;;
20002;SDS011;10162;41.600;23.806;2022-07-17T09:37:36;6.28;;;5.05;;
20002;SDS011;10162;41.600;23.806;2022-07-17T09:40:03;6.00;;;5.40;;
20002;SDS011;10162;41.600;23.806;2022-07-17T09:42:35;14.35;;;6.90;;
20002;SDS011;10162;41.600;23.806;2022-07-17T09:45:01;7.45;;;5.70;;
20002;SDS011;10162;41.600;23.806;2022-07-17T09:47:33;5.80;;;5.07;;
20002;SDS011;10162;41.600;23.806;2022-07-17T09:50:00;6.45;;;5.85;;
20002;SDS011;10162;41.600;23.806;2022-07-17T09:52:28;6.00;;;5.57;;
20002;SDS011;10162;41.600;23.806;2022-07-17T09:54:56;5.82;;;5.32;;
20002;SDS011;10162;41.600;23.806;2022-07-17T09:57:24;5.93;;;5.32;;
20002;SDS011;10162;41.600;23.806;2022-07-17T09:59:52;5.63;;;5.10;;
20002;SDS011;10162;41.600;23.806;2022-07-17T10:02:20;6.72;;;5.07;;
20002;SDS011;10162;41.600;23.806;2022-07-17T10:04:46;5.70;;;5.15;;
20002;SDS011;10162;41.600;23.806;2022-07-17T10:07:13;5.82;;;5.38;;
20002;SDS011;10162;41.600;23.806;2022-07-17T10:09:39;5.43;;;4.97;;
20002;SDS011;10162;41.600;23.806;2022-07-17T10:12:06;5.00;;;4.70;;
20002;SDS011;10162;41.600;23.806;2022-07-17T10:14:34;6.75;;;5.30;;
20002;SDS011;10162;41.600;23.806;2022-07-17T10:17:07;4.85;;;4.55;;
20002;SDS011;10162;41.600;23.806;2022-07-17T10:19:48;4.93;;;4.53;;
20002;SDS011;10162;41.600;23.806;2022-07-17T10:22:15;5.10;;;4.70;;
20002;SDS011;10162;41.600;23.806;2022-07-17T10:24:52;4.93;;;4.63;;
20002;SDS011;10162;41.600;23.806;2022-07-17T10:27:20;6.20;;;4.72;;
20002;SDS011;10162;41.600;23.806;2022-07-17T10:30:01;10.55;;;5.20;;
20002;SDS011;10162;41.600;23.806;2022-07-17T10:32:27;4.95;;;4.55;;
20002;SDS011;10162;41.600;23.806;2022-07-17T10:35:03;4.68;;;4.28;;
20002;SDS011;10162;41.600;23.806;2022-07-17T10:42:58;4.97;;;4.57;;
20002;SDS011;10162;41.600;23.806;2022-07-17T10:45:33;5.55;;;4.53;;
20002;SDS011;10162;41.600;23.806;2022-07-17T10:48:23;5.25;;;4.82;;
20002;SDS011;10162;41.600;23.806;2022-07-17T10:50:50;4.72;;;4.13;;
20002;SDS011;10162;41.600;23.806;2022-07-17T10:53:33;10.00;;;6.13;;
20002;SDS011;10162;41.600;23.806;2022-07-17T10:56:05;5.65;;;5.25;;
20002;SDS011;10162;41.600;23.806;2022-07-17T11:06:08;5.50;;;5.07;;
20002;SDS011;10162;41.600;23.806;2022-07-17T11:08:40;6.70;;;5.60;;
20002;SDS011;10162;41.600;23.806;2022-07-17T11:11:11;7.30;;;5.50;;
20002;SDS011;10162;41.600;23.806;2022-07-17T11:13:38;6.13;;;5.53;;
20002;SDS011;10162;41.600;23.806;2022-07-17T11:16:04;6.53;;;5.38;;
20002;SDS011;10162;41.600;23.806;2022-07-17T11:18:30;6.25;;;5.70;;
20002;SDS011;10162;41.600;23.806;2022-07-17T11:20:56;6.75;;;5.50;;
20002;SDS011;10162;41.600;23.806;2022-07-17T11:23:25;6.30;;;5.80;;
20002;SDS011;10162;41.600;23.806;2022-07-17T11:31:15;6.60;;;5.90;;
20002;SDS011;10162;41.600;23.806;2022-07-17T11:33:47;7.22;;;6.50;;
20002;SDS011;10162;41.600;23.806;2022-07-17T11:36:15;7.50;;;6.78;;
20002;SDS011;10162;41.600;23.806;2022-07-17T11:38:45;8.57;;;6.57;;
20002;SDS011;10162;41.600;23.806;2022-07-17T11:41:11;7.15;;;6.55;;
20002;SDS011;10162;41.600;23.806;2022-07-17T11:43:40;8.05;;;6.30;;
20002;SDS011;10162;41.600;23.806;2022-07-17T11:46:07;7.35;;;6.50;;
20002;SDS011;10162;41.600;23.806;2022-07-17T11:48:33;7.03;;;6.40;;
20002;SDS011;10162;41.600;23.806;2022-07-17T11:50:59;7.07;;;6.47;;
20002;SDS011;10162;41.600;23.806;2022-07-17T11:53:36;8.48;;;5.63;;
20002;SDS011;10162;41.600;23.806;2022-07-17T11:56:03;6.18;;;5.57;;
20002;SDS011;10162;41.600;23.806;2022-07-17T11:58:45;6.95;;;5.50;;
20002;SDS011;10162;41.600;23.806;2022-07-17T12:01:13;6.68;;;5.15;;
20002;SDS011;10162;41.600;23.806;2022-07-17T12:03:39;5.20;;;4.82;;
20002;SDS011;10162;41.600;23.806;2022-07-17T12:06:05;9.27;;;5.10;;
20002;SDS011;10162;41.600;23.806;2022-07-17T12:08:32;7.60;;;5.53;;
20002;SDS011;10162;41.600;23.806;2022-07-17T12:13:39;6.15;;;5.55;;
20002;SDS011;10162;41.600;23.806;2022-07-17T12:16:23;5.90;;;5.30;;
20002;SDS011;10162;41.600;23.806;2022-07-17T12:21:59;5.95;;;5.45;;
20002;SDS011;10162;41.600;23.806;2022-07-17T12:24:28;6.60;;;6.00;;
20002;SDS011;10162;41.600;23.806;2022-07-17T12:27:02;6.13;;;5.53;;
20002;SDS011;10162;41.600;23.806;2022-07-17T12:29:31;5.93;;;5.40;;
20002;SDS011;10162;41.600;23.806;2022-07-17T12:32:07;6.93;;;6.32;;
20002;SDS011;10162;41.600;23.806;2022-07-17T12:34:38;8.02;;;5.95;;
20002;SDS011;10162;41.600;23.806;2022-07-17T12:37:15;6.38;;;5.47;;
20002;SDS011;10162;41.600;23.806;2022-07-17T12:39:43;5.88;;;5.20;;
20002;SDS011;10162;41.600;23.806;2022-07-17T12:42:09;7.15;;;6.32;;
20002;SDS011;10162;41.600;23.806;2022-07-17T12:44:35;6.45;;;5.85;;
20002;SDS011;10162;41.600;23.806;2022-07-17T12:47:01;7.20;;;6.30;;
20002;SDS011;10162;41.600;23.806;2022-07-17T12:49:28;10.48;;;5.50;;
20002;SDS011;10162;41.600;23.806;2022-07-17T12:51:54;6.72;;;6.13;;
20002;SDS011;10162;41.600;23.806;2022-07-17T12:54:21;6.70;;;6.10;;
20002;SDS011;10162;41.600;23.806;2022-07-17T12:56:47;7.63;;;6.93;;
20002;SDS011;10162;41.600;23.806;2022-07-17T12:59:13;9.30;;;6.90;;
20002;SDS011;10162;41.600;23.806;2022-07-17T13:01:39;6.22;;;5.72;;
20002;SDS011;10162;41.600;23.806;2022-07-17T13:04:05;5.47;;;5.07;;
20002;SDS011;10162;41.600;23.806;2022-07-17T13:06:30;8.10;;;5.57;;
20002;SDS011;10162;41.600;23.806;2022-07-17T13:08:58;7.30;;;5.45;;
20002;SDS011;10162;41.600;23.806;2022-07-17T13:11:25;6.70;;;5.95;;
20002;SDS011;10162;41.600;23.806;2022-07-17T13:13:52;5.65;;;5.15;;
20002;SDS011;10162;41.600;23.806;2022-07-17T13:16:18;5.75;;;5.30;;
20002;SDS011;10162;41.600;23.806;2022-07-17T13:18:44;7.05;;;5.60;;
20002;SDS011;10162;41.600;23.806;2022-07-17T13:21:11;5.15;;;4.75;;
20002;SDS011;10162;41.600;23.806;2022-07-17T13:23:37;5.80;;;5.20;;
20002;SDS011;10162;41.600;23.806;2022-07-17T13:26:03;5.07;;;4.68;;
20002;SDS011;10162;41.600;23.806;2022-07-17T13:28:30;5.07;;;4.55;;
20002;SDS011;10162;41.600;23.806;2022-07-17T13:30:55;5.18;;;4.25;;
20002;SDS011;10162;41.600;23.806;2022-07-17T13:33:22;4.78;;;4.38;;
20002;SDS011;10162;41.600;23.806;2022-07-17T13:35:48;5.43;;;4.18;;
20002;SDS011;10162;41.600;23.806;2022-07-17T13:38:14;4.47;;;4.07;;
20002;SDS011;10162;41.600;23.806;2022-07-17T13:40:40;5.05;;;3.90;;
20002;SDS011;10162;41.600;23.806;2022-07-17T13:43:07;4.30;;;4.00;;
20002;SDS011;10162;41.600;23.806;2022-07-17T13:45:32;7.03;;;3.60;;
20002;SDS011;10162;41.600;23.806;2022-07-17T13:47:59;5.63;;;3.90;;
20002;SDS011;10162;41.600;23.806;2022-07-17T13:50:25;4.70;;;3.95;;
20002;SDS011;10162;41.600;23.806;2022-07-17T13:52:54;4.97;;;3.88;;
20002;SDS011;10162;41.600;23.806;2022-07-17T13:55:20;4.72;;;4.10;;
20002;SDS011;10162;41.600;23.806;2022-07-17T13:57:46;5.25;;;4.40;;
20002;SDS011;10162;41.600;23.806;2022-07-17T14:00:12;4.82;;;4.15;;
20002;SDS011;10162;41.600;23.806;2022-07-17T14:02:38;4.40;;;4.10;;
20002;SDS011;10162;41.600;23.806;2022-07-17T14:05:04;4.07;;;3.78;;
20002;SDS011;10162;41.600;23.806;2022-07-17T14:07:32;4.50;;;4.10;;
20002;SDS011;10162;41.600;23.806;2022-07-17T14:09:58;7.70;;;4.20;;
20002;SDS011;10162;41.600;23.806;2022-07-17T14:12:24;5.40;;;4.53;;
20002;SDS011;10162;41.600;23.806;2022-07-17T14:14:49;4.10;;;3.80;;
20002;SDS011;10162;41.600;23.806;2022-07-17T14:17:15;5.38;;;3.90;;
20002;SDS011;10162;41.600;23.806;2022-07-17T14:19:45;6.13;;;3.90;;
20002;SDS011;10162;41.600;23.806;2022-07-17T14:22:11;4.78;;;4.10;;
20002;SDS011;10162;41.600;23.806;2022-07-17T14:24:38;4.20;;;3.80;;
20002;SDS011;10162;41.600;23.806;2022-07-17T14:27:04;4.10;;;3.80;;
20002;SDS011;10162;41.600;23.806;2022-07-17T14:29:30;4.10;;;3.70;;
20002;SDS011;10162;41.600;23.806;2022-07-17T14:31:56;4.50;;;4.20;;
20002;SDS011;10162;41.600;23.806;2022-07-17T14:34:22;4.55;;;4.13;;
20002;SDS011;10162;41.600;23.806;2022-07-17T14:36:48;4.32;;;3.92;;
20002;SDS011;10162;41.600;23.806;2022-07-17T14:39:14;4.53;;;3.97;;
20002;SDS011;10162;41.600;23.806;2022-07-17T14:41:40;4.93;;;3.85;;
20002;SDS011;10162;41.600;23.806;2022-07-17T14:44:09;5.43;;;4.03;;
20002;SDS011;10162;41.600;23.806;2022-07-17T14:46:36;5.38;;;4.47;;
20002;SDS011;10162;41.600;23.806;2022-07-17T14:49:01;9.27;;;3.92;;
20002;SDS011;10162;41.600;23.806;2022-07-17T14:51:27;6.82;;;4.32;;
20002;SDS011;10162;41.600;23.806;2022-07-17T14:53:53;5.93;;;3.53;;
20002;SDS011;10162;41.600;23.806;2022-07-17T14:56:19;4.20;;;3.88;;
20002;SDS011;10162;41.600;23.806;2022-07-17T14:58:45;4.15;;;3.75;;
20002;SDS011;10162;41.600;23.806;2022-07-17T15:01:10;4.30;;;3.90;;
20002;SDS011;10162;41.600;23.806;2022-07-17T15:03:36;4.25;;;3.95;;
20002;SDS011;10162;41.600;23.806;2022-07-17T15:06:02;5.60;;;4.28;;
20002;SDS011;10162;41.600;23.806;2022-07-17T15:08:28;4.35;;;3.92;;
20002;SDS011;10162;41.600;23.806;2022-07-17T15:10:54;4.28;;;3.97;;
20002;SDS011;10162;41.600;23.806;2022-07-17T15:13:20;4.32;;;4.00;;
20002;SDS011;10162;41.600;23.806;2022-07-17T15:15:52;4.68;;;4.25;;
20002;SDS011;10162;41.600;23.806;2022-07-17T15:18:27;4.50;;;3.97;;
20002;SDS011;10162;41.600;23.806;2022-07-17T15:20:53;4.60;;;4.20;;
20002;SDS011;10162;41.600;23.806;2022-07-17T15:23:24;4.50;;;4.15;;
20002;SDS011;10162;41.600;23.806;2022-07-17T15:25:49;4.28;;;3.80;;
20002;SDS011;10162;41.600;23.806;2022-07-17T15:28:15;4.15;;;3.75;;
20002;SDS011;10162;41.600;23.806;2022-07-17T15:30:41;4.88;;;4.47;;
20002;SDS011;10162;41.600;23.806;2022-07-17T15:33:07;4.72;;;4.25;;
20002;SDS011;10162;41.600;23.806;2022-07-17T15:35:33;5.22;;;4.72;;
20002;SDS011;10162;41.600;23.806;2022-07-17T15:37:59;4.75;;;4.45;;
20002;SDS011;10162;41.600;23.806;2022-07-17T15:40:28;19.42;;;14.07;;
20002;SDS011;10162;41.600;23.806;2022-07-17T15:42:54;12.90;;;10.05;;
20002;SDS011;10162;41.600;23.806;2022-07-17T15:45:20;11.60;;;6.43;;
20002;SDS011;10162;41.600;23.806;2022-07-17T15:47:47;6.40;;;5.57;;
20002;SDS011;10162;41.600;23.806;2022-07-17T15:50:13;6.10;;;5.55;;
20002;SDS011;10162;41.600;23.806;2022-07-17T15:52:39;5.57;;;5.03;;
20002;SDS011;10162;41.600;23.806;2022-07-17T15:55:06;22.92;;;16.58;;
20002;SDS011;10162;41.600;23.806;2022-07-17T15:57:32;12.05;;;10.10;;
20002;SDS011;10162;41.600;23.806;2022-07-17T15:59:57;8.50;;;7.70;;
20002;SDS011;10162;41.600;23.806;2022-07-17T16:02:23;5.07;;;4.57;;
20002;SDS011;10162;41.600;23.806;2022-07-17T16:04:50;6.28;;;4.88;;
20002;SDS011;10162;41.600;23.806;2022-07-17T16:07:16;4.93;;;4.53;;
20002;SDS011;10162;41.600;23.806;2022-07-17T16:09:42;4.38;;;4.07;;
20002;SDS011;10162;41.600;23.806;2022-07-17T16:12:07;7.40;;;4.53;;
20002;SDS011;10162;41.600;23.806;2022-07-17T16:14:33;5.00;;;4.60;;
20002;SDS011;10162;41.600;23.806;2022-07-17T16:16:59;7.18;;;4.20;;
20002;SDS011;10162;41.600;23.806;2022-07-17T16:19:25;5.20;;;4.30;;
20002;SDS011;10162;41.600;23.806;2022-07-17T16:21:51;4.70;;;3.88;;
20002;SDS011;10162;41.600;23.806;2022-07-17T16:24:16;6.53;;;4.55;;
20002;SDS011;10162;41.600;23.806;2022-07-17T16:26:42;4.90;;;4.50;;
20002;SDS011;10162;41.600;23.806;2022-07-17T16:29:10;8.32;;;5.15;;
20002;SDS011;10162;41.600;23.806;2022-07-17T16:31:36;6.82;;;4.70;;
20002;SDS011;10162;41.600;23.806;2022-07-17T16:34:02;5.43;;;4.30;;
20002;SDS011;10162;41.600;23.806;2022-07-17T16:36:28;4.75;;;4.35;;
20002;SDS011;10162;41.600;23.806;2022-07-17T16:38:54;3.97;;;3.67;;
20002;SDS011;10162;41.600;23.806;2022-07-17T16:41:21;5.22;;;4.05;;
20002;SDS011;10162;41.600;23.806;2022-07-17T16:47:14;4.80;;;4.22;;
20002;SDS011;10162;41.600;23.806;2022-07-17T16:49:40;4.78;;;4.38;;
20002;SDS011;10162;41.600;23.806;2022-07-17T16:52:06;4.82;;;4.20;;
20002;SDS011;10162;41.600;23.806;2022-07-17T16:54:33;7.10;;;5.07;;
20002;SDS011;10162;41.600;23.806;2022-07-17T16:56:59;6.03;;;4.82;;
20002;SDS011;10162;41.600;23.806;2022-07-17T16:59:25;5.60;;;5.10;;
20002;SDS011;10162;41.600;23.806;2022-07-17T17:01:52;4.55;;;4.15;;
20002;SDS011;10162;41.600;23.806;2022-07-17T17:08:06;4.82;;;4.43;;
20002;SDS011;10162;41.600;23.806;2022-07-17T17:10:31;4.57;;;4.18;;
20002;SDS011;10162;41.600;23.806;2022-07-17T17:13:08;4.93;;;4.53;;
20002;SDS011;10162;41.600;23.806;2022-07-17T17:15:33;4.63;;;4.22;;
20002;SDS011;10162;41.600;23.806;2022-07-17T17:18:00;5.28;;;4.50;;
20002;SDS011;10162;41.600;23.806;2022-07-17T17:20:26;6.53;;;5.85;;
20002;SDS011;10162;41.600;23.806;2022-07-17T17:22:58;8.88;;;6.55;;